sensor_id;sensor_type;location;lat;lon;timestamp;pressure;altitude;pressure_sealevel;temperature;humidity
6224;BME280;3145;42.726;23.342;2022-12-29T00:00:04;96308.97;;;4.22;100.00
6224;BME280;3145;42.726;23.342;2022-12-29T00:02:31;96304.34;;;4.25;100.00
6224;BME280;3145;42.726;23.342;2022-12-29T00:05:00;96306.22;;;4.23;100.00
6224;BME280;3145;42.726;23.342;2022-12-29T00:07:26;96304.44;;;4.13;100.00
6224;BME280;3145;42.726;23.342;2022-12-29T00:09:53;96299.56;;;4.08;100.00
6224;BME280;3145;42.726;23.342;2022-12-29T00:12:20;96305.75;;;4.18;100.00
6224;BME280;3145;42.726;23.342;2022-12-29T00:14:46;96304.81;;;4.19;100.00
6224;BME280;3145;42.726;23.342;2022-12-29T00:17:30;96309.31;;;4.28;100.00
6224;BME280;3145;42.726;23.342;2022-12-29T00:19:57;96309.09;;;4.31;100.00
6224;BME280;3145;42.726;23.342;2022-12-29T00:22:43;96307.06;;;4.35;100.00
6224;BME280;3145;42.726;23.342;2022-12-29T00:25:27;96312.19;;;4.36;100.00
6224;BME280;3145;42.726;23.342;2022-12-29T00:28:11;96312.19;;;4.36;100.00
6224;BME280;3145;42.726;23.342;2022-12-29T00:30:59;96300.56;;;4.29;100.00
6224;BME280;3145;42.726;23.342;2022-12-29T00:33:43;96267.13;;;4.22;100.00
6224;BME280;3145;42.726;23.342;2022-12-29T00:36:30;96320.66;;;4.51;100.00
6224;BME280;3145;42.726;23.342;2022-12-29T00:39:01;96328.59;;;4.60;100.00
6224;BME280;3145;42.726;23.342;2022-12-29T00:41:48;96308.06;;;4.56;100.00
6224;BME280;3145;42.726;23.342;2022-12-29T00:44:34;96328.38;;;4.74;100.00
6224;BME280;3145;42.726;23.342;2022-12-29T00:47:01;96328.84;;;4.68;100.00
6224;BME280;3145;42.726;23.342;2022-12-29T00:49:30;96331.69;;;4.76;100.00
6224;BME280;3145;42.726;23.342;2022-12-29T00:51:58;96328.75;;;4.81;100.00
6224;BME280;3145;42.726;23.342;2022-12-29T00:54:27;96334.31;;;4.76;100.00
6224;BME280;3145;42.726;23.342;2022-12-29T00:56:54;96334.19;;;4.78;100.00
6224;BME280;3145;42.726;23.342;2022-12-29T00:59:21;96333.38;;;4.77;100.00
6224;BME280;3145;42.726;23.342;2022-12-29T01:01:49;96334.59;;;4.73;100.00
6224;BME280;3145;42.726;23.342;2022-12-29T01:04:16;96337.66;;;4.78;100.00
6224;BME280;3145;42.726;23.342;2022-12-29T01:06:43;96334.19;;;4.78;100.00
6224;BME280;3145;42.726;23.342;2022-12-29T01:09:10;96325.66;;;4.76;100.00
6224;BME280;3145;42.726;23.342;2022-12-29T01:11:56;96313.41;;;4.65;100.00
6224;BME280;3145;42.726;23.342;2022-12-29T01:14:23;96321.13;;;4.78;100.00
6224;BME280;3145;42.726;23.342;2022-12-29T01:16:50;96198.66;;;4.06;100.00
6224;BME280;3145;42.726;23.342;2022-12-29T01:19:17;96258.44;;;4.32;100.00
6224;BME280;3145;42.726;23.342;2022-12-29T01:21:44;96311.25;;;4.59;100.00
6224;BME280;3145;42.726;23.342;2022-12-29T01:24:11;96313.63;;;4.62;100.00
6224;BME280;3145;42.726;23.342;2022-12-29T01:26:38;96310.78;;;4.54;100.00
6224;BME280;3145;42.726;23.342;2022-12-29T01:29:06;96316.72;;;4.56;100.00
6224;BME280;3145;42.726;23.342;2022-12-29T01:31:32;96310.28;;;4.60;100.00
6224;BME280;3145;42.726;23.342;2022-12-29T01:33:59;96302.31;;;4.62;100.00
6224;BME280;3145;42.726;23.342;2022-12-29T01:36:26;96304.47;;;4.57;100.00
6224;BME280;3145;42.726;23.342;2022-12-29T01:38:53;96305.06;;;4.60;100.00
6224;BME280;3145;42.726;23.342;2022-12-29T01:41:20;96299.84;;;4.49;100.00
6224;BME280;3145;42.726;23.342;2022-12-29T01:43:48;96298.75;;;4.41;100.00
6224;BME280;3145;42.726;23.342;2022-12-29T01:46:28;96300.78;;;4.48;100.00
6224;BME280;3145;42.726;23.342;2022-12-29T01:49:02;96274.41;;;4.29;100.00
6224;BME280;3145;42.726;23.342;2022-12-29T01:51:33;96292.94;;;4.37;100.00
6224;BME280;3145;42.726;23.342;2022-12-29T01:54:04;96282.50;;;4.37;100.00
6224;BME280;3145;42.726;23.342;2022-12-29T01:56:33;96286.03;;;4.36;100.00
6224;BME280;3145;42.726;23.342;2022-12-29T01:59:02;96283.66;;;4.33;100.00
6224;BME280;3145;42.726;23.342;2022-12-29T02:01:33;96281.28;;;4.30;100.00
6224;BME280;3145;42.726;23.342;2022-12-29T02:03:59;96272.97;;;4.25;100.00
6224;BME280;3145;42.726;23.342;2022-12-29T02:06:29;96277.25;;;4.37;100.00
6224;BME280;3145;42.726;23.342;2022-12-29T02:08:57;96270.44;;;4.35;100.00
6224;BME280;3145;42.726;23.342;2022-12-29T02:11:26;96280.56;;;4.39;100.00
6224;BME280;3145;42.726;23.342;2022-12-29T02:13:54;96283.41;;;4.36;100.00
6224;BME280;3145;42.726;23.342;2022-12-29T02:16:39;96283.41;;;4.36;100.00
6224;BME280;3145;42.726;23.342;2022-12-29T02:22:13;96279.75;;;4.28;100.00
6224;BME280;3145;42.726;23.342;2022-12-29T02:25:11;96275.22;;;4.30;100.00
6224;BME280;3145;42.726;23.342;2022-12-29T02:27:51;96280.94;;;4.24;100.00
6224;BME280;3145;42.726;23.342;2022-12-29T02:33:37;96258.44;;;4.10;100.00
6224;BME280;3145;42.726;23.342;2022-12-29T02:36:15;96276.53;;;4.13;100.00
6224;BME280;3145;42.726;23.342;2022-12-29T02:38:52;96272.47;;;4.09;100.00
6224;BME280;3145;42.726;23.342;2022-12-29T02:41:29;96273.50;;;4.07;100.00
6224;BME280;3145;42.726;23.342;2022-12-29T02:44:04;96260.56;;;3.94;100.00
6224;BME280;3145;42.726;23.342;2022-12-29T02:46:39;96270.56;;;4.11;100.00
6224;BME280;3145;42.726;23.342;2022-12-29T02:49:11;96277.22;;;4.15;100.00
6224;BME280;3145;42.726;23.342;2022-12-29T02:51:51;96275.34;;;4.17;100.00
6224;BME280;3145;42.726;23.342;2022-12-29T02:54:19;96256.78;;;4.09;100.00
6224;BME280;3145;42.726;23.342;2022-12-29T02:57:10;96251.91;;;4.05;100.00
6224;BME280;3145;42.726;23.342;2022-12-29T02:59:37;96263.56;;;4.23;100.00
6224;BME280;3145;42.726;23.342;2022-12-29T03:05:11;96144.09;;;3.57;100.00
6224;BME280;3145;42.726;23.342;2022-12-29T03:07:44;96267.25;;;4.31;100.00
6224;BME280;3145;42.726;23.342;2022-12-29T03:10:21;96262.03;;;4.31;100.00
6224;BME280;3145;42.726;23.342;2022-12-29T03:12:58;96258.72;;;4.29;100.00
6224;BME280;3145;42.726;23.342;2022-12-29T03:15:51;96257.88;;;4.29;100.00
6224;BME280;3145;42.726;23.342;2022-12-29T03:21:16;96257.50;;;4.22;100.00
6224;BME280;3145;42.726;23.342;2022-12-29T03:23:45;96255.59;;;4.02;100.00
6224;BME280;3145;42.726;23.342;2022-12-29T03:26:16;96256.78;;;3.98;100.00
6224;BME280;3145;42.726;23.342;2022-12-29T03:28:46;96253.78;;;4.03;100.00
6224;BME280;3145;42.726;23.342;2022-12-29T03:31:16;96259.84;;;4.03;100.00
6224;BME280;3145;42.726;23.342;2022-12-29T03:33:46;96260.94;;;4.01;100.00
6224;BME280;3145;42.726;23.342;2022-12-29T03:36:17;96249.25;;;3.94;100.00
6224;BME280;3145;42.726;23.342;2022-12-29T03:38:49;96254.59;;;3.92;100.00
6224;BME280;3145;42.726;23.342;2022-12-29T03:41:20;96254.38;;;3.95;100.00
6224;BME280;3145;42.726;23.342;2022-12-29T03:43:49;96246.28;;;3.87;100.00
6224;BME280;3145;42.726;23.342;2022-12-29T03:46:15;96242.34;;;3.82;100.00
6224;BME280;3145;42.726;23.342;2022-12-29T03:48:42;96262.09;;;3.86;100.00
6224;BME280;3145;42.726;23.342;2022-12-29T03:51:10;96259.69;;;3.83;100.00
6224;BME280;3145;42.726;23.342;2022-12-29T03:53:37;96258.78;;;3.84;100.00
6224;BME280;3145;42.726;23.342;2022-12-29T03:56:03;96263.84;;;3.74;100.00
6224;BME280;3145;42.726;23.342;2022-12-29T03:58:30;96268.22;;;3.74;100.00
6224;BME280;3145;42.726;23.342;2022-12-29T04:00:57;96270.84;;;3.74;100.00
6224;BME280;3145;42.726;23.342;2022-12-29T04:03:24;96249.53;;;3.56;100.00
6224;BME280;3145;42.726;23.342;2022-12-29T04:05:50;96276.19;;;3.72;100.00
6224;BME280;3145;42.726;23.342;2022-12-29T04:08:18;96270.25;;;3.70;100.00
6224;BME280;3145;42.726;23.342;2022-12-29T04:10:45;96273.56;;;3.72;100.00
6224;BME280;3145;42.726;23.342;2022-12-29T04:13:12;96265.25;;;3.67;100.00
6224;BME280;3145;42.726;23.342;2022-12-29T04:15:38;96263.56;;;3.55;100.00
6224;BME280;3145;42.726;23.342;2022-12-29T04:18:06;96274.69;;;3.57;100.00
6224;BME280;3145;42.726;23.342;2022-12-29T04:20:33;96273.25;;;3.53;100.00
6224;BME280;3145;42.726;23.342;2022-12-29T04:23:18;96266.00;;;3.46;100.00
6224;BME280;3145;42.726;23.342;2022-12-29T04:25:45;96273.50;;;3.50;100.00
6224;BME280;3145;42.726;23.342;2022-12-29T04:28:13;96272.34;;;3.54;100.00
6224;BME280;3145;42.726;23.342;2022-12-29T04:30:39;96282.06;;;3.52;100.00
6224;BME280;3145;42.726;23.342;2022-12-29T04:33:06;96275.88;;;3.53;100.00
6224;BME280;3145;42.726;23.342;2022-12-29T04:35:33;96254.44;;;3.26;100.00
6224;BME280;3145;42.726;23.342;2022-12-29T04:38:00;96292.03;;;3.47;100.00
6224;BME280;3145;42.726;23.342;2022-12-29T04:40:28;96288.41;;;3.37;100.00
6224;BME280;3145;42.726;23.342;2022-12-29T04:42:55;96294.25;;;3.41;100.00
6224;BME280;3145;42.726;23.342;2022-12-29T04:45:23;96272.19;;;3.21;100.00
6224;BME280;3145;42.726;23.342;2022-12-29T04:47:50;96301.13;;;3.42;100.00
6224;BME280;3145;42.726;23.342;2022-12-29T04:50:16;96308.75;;;3.45;100.00
6224;BME280;3145;42.726;23.342;2022-12-29T04:52:43;96301.88;;;3.44;100.00
6224;BME280;3145;42.726;23.342;2022-12-29T04:55:10;96295.91;;;3.42;100.00
6224;BME280;3145;42.726;23.342;2022-12-29T04:57:38;96311.00;;;3.49;100.00
6224;BME280;3145;42.726;23.342;2022-12-29T05:00:06;96244.25;;;3.11;100.00
6224;BME280;3145;42.726;23.342;2022-12-29T05:02:34;96308.63;;;3.46;100.00
6224;BME280;3145;42.726;23.342;2022-12-29T05:05:01;96304.75;;;3.52;100.00
6224;BME280;3145;42.726;23.342;2022-12-29T05:07:27;96294.63;;;3.47;100.00
6224;BME280;3145;42.726;23.342;2022-12-29T05:09:54;96260.72;;;3.24;100.00
6224;BME280;3145;42.726;23.342;2022-12-29T05:12:21;96308.19;;;3.52;100.00
6224;BME280;3145;42.726;23.342;2022-12-29T05:14:49;96310.94;;;3.62;100.00
6224;BME280;3145;42.726;23.342;2022-12-29T05:20:37;96311.06;;;3.60;100.00
6224;BME280;3145;42.726;23.342;2022-12-29T05:23:04;96307.28;;;3.64;100.00
6224;BME280;3145;42.726;23.342;2022-12-29T05:25:31;96307.91;;;3.68;100.00
6224;BME280;3145;42.726;23.342;2022-12-29T05:27:57;96305.78;;;3.73;100.00
6224;BME280;3145;42.726;23.342;2022-12-29T05:30:26;96304.69;;;3.75;100.00
6224;BME280;3145;42.726;23.342;2022-12-29T05:32:52;96286.16;;;3.67;100.00
6224;BME280;3145;42.726;23.342;2022-12-29T05:35:19;96313.50;;;3.74;100.00
6224;BME280;3145;42.726;23.342;2022-12-29T05:37:46;96313.53;;;3.85;100.00
6224;BME280;3145;42.726;23.342;2022-12-29T05:40:12;96314.25;;;3.87;100.00
6224;BME280;3145;42.726;23.342;2022-12-29T05:42:39;96320.91;;;3.91;100.00
6224;BME280;3145;42.726;23.342;2022-12-29T05:45:07;96317.84;;;3.97;100.00
6224;BME280;3145;42.726;23.342;2022-12-29T05:47:36;96319.63;;;3.97;100.00
6224;BME280;3145;42.726;23.342;2022-12-29T05:50:03;96318.56;;;3.99;100.00
6224;BME280;3145;42.726;23.342;2022-12-29T05:52:41;96312.38;;;3.89;100.00
6224;BME280;3145;42.726;23.342;2022-12-29T05:55:08;96299.84;;;3.82;100.00
6224;BME280;3145;42.726;23.342;2022-12-29T05:57:36;96269.47;;;3.57;100.00
6224;BME280;3145;42.726;23.342;2022-12-29T06:00:03;96330.66;;;3.89;100.00
6224;BME280;3145;42.726;23.342;2022-12-29T06:02:30;96329.78;;;3.78;100.00
6224;BME280;3145;42.726;23.342;2022-12-29T06:04:58;96327.25;;;3.76;100.00
6224;BME280;3145;42.726;23.342;2022-12-29T06:07:25;96330.13;;;3.84;100.00
6224;BME280;3145;42.726;23.342;2022-12-29T06:09:51;96331.34;;;3.91;100.00
6224;BME280;3145;42.726;23.342;2022-12-29T06:12:18;96332.34;;;4.01;100.00
6224;BME280;3145;42.726;23.342;2022-12-29T06:14:45;96342.94;;;4.11;100.00
6224;BME280;3145;42.726;23.342;2022-12-29T06:17:11;96332.38;;;4.23;100.00
6224;BME280;3145;42.726;23.342;2022-12-29T06:19:38;96309.34;;;4.17;100.00
6224;BME280;3145;42.726;23.342;2022-12-29T06:22:06;96336.34;;;4.40;100.00
6224;BME280;3145;42.726;23.342;2022-12-29T06:24:33;96334.31;;;4.43;100.00
6224;BME280;3145;42.726;23.342;2022-12-29T06:27:00;96335.25;;;4.31;100.00
6224;BME280;3145;42.726;23.342;2022-12-29T06:29:26;96337.41;;;4.26;100.00
6224;BME280;3145;42.726;23.342;2022-12-29T06:31:53;96325.94;;;4.16;100.00
6224;BME280;3145;42.726;23.342;2022-12-29T06:34:23;96336.41;;;4.05;100.00
6224;BME280;3145;42.726;23.342;2022-12-29T06:36:49;96338.75;;;4.08;100.00
6224;BME280;3145;42.726;23.342;2022-12-29T06:39:17;96338.88;;;3.96;100.00
6224;BME280;3145;42.726;23.342;2022-12-29T06:41:44;96339.25;;;4.02;100.00
6224;BME280;3145;42.726;23.342;2022-12-29T06:44:11;96342.81;;;4.01;100.00
6224;BME280;3145;42.726;23.342;2022-12-29T06:46:38;96338.25;;;3.92;100.00
6224;BME280;3145;42.726;23.342;2022-12-29T06:49:04;96350.63;;;3.90;100.00
6224;BME280;3145;42.726;23.342;2022-12-29T06:51:31;96354.94;;;4.02;100.00
6224;BME280;3145;42.726;23.342;2022-12-29T06:53:58;96353.41;;;4.22;100.00
6224;BME280;3145;42.726;23.342;2022-12-29T06:56:26;96346.69;;;4.52;100.00
6224;BME280;3145;42.726;23.342;2022-12-29T06:58:52;96357.88;;;4.98;100.00
6224;BME280;3145;42.726;23.342;2022-12-29T07:01:19;96350.94;;;5.20;100.00
6224;BME280;3145;42.726;23.342;2022-12-29T07:03:46;96357.91;;;5.52;100.00
6224;BME280;3145;42.726;23.342;2022-12-29T07:06:13;96347.72;;;5.81;100.00
6224;BME280;3145;42.726;23.342;2022-12-29T07:08:39;96323.06;;;5.72;100.00
6224;BME280;3145;42.726;23.342;2022-12-29T07:11:06;96349.41;;;6.23;100.00
6224;BME280;3145;42.726;23.342;2022-12-29T07:13:35;96300.41;;;6.44;100.00
6224;BME280;3145;42.726;23.342;2022-12-29T07:16:05;96346.94;;;7.02;100.00
6224;BME280;3145;42.726;23.342;2022-12-29T07:18:32;96342.50;;;7.42;100.00
6224;BME280;3145;42.726;23.342;2022-12-29T07:20:58;96346.31;;;7.87;100.00
6224;BME280;3145;42.726;23.342;2022-12-29T07:23:25;96349.91;;;8.05;99.44
6224;BME280;3145;42.726;23.342;2022-12-29T07:25:59;96349.78;;;8.16;97.90
6224;BME280;3145;42.726;23.342;2022-12-29T07:28:25;96344.25;;;8.00;97.40
6224;BME280;3145;42.726;23.342;2022-12-29T07:30:53;96348.00;;;7.97;97.28
6224;BME280;3145;42.726;23.342;2022-12-29T07:33:20;96342.31;;;8.40;97.85
6224;BME280;3145;42.726;23.342;2022-12-29T07:35:47;96350.38;;;8.84;94.00
6224;BME280;3145;42.726;23.342;2022-12-29T07:38:14;96344.53;;;9.27;92.46
6224;BME280;3145;42.726;23.342;2022-12-29T07:40:41;96344.78;;;9.78;89.69
6224;BME280;3145;42.726;23.342;2022-12-29T07:43:08;96333.94;;;10.16;87.84
6224;BME280;3145;42.726;23.342;2022-12-29T07:45:35;96331.53;;;10.05;85.89
6224;BME280;3145;42.726;23.342;2022-12-29T07:48:04;96342.31;;;9.94;85.84
6224;BME280;3145;42.726;23.342;2022-12-29T07:50:33;96359.47;;;10.25;86.36
6224;BME280;3145;42.726;23.342;2022-12-29T07:52:59;96350.81;;;10.58;84.07
6224;BME280;3145;42.726;23.342;2022-12-29T07:55:26;96347.13;;;10.34;80.87
6224;BME280;3145;42.726;23.342;2022-12-29T07:57:53;96339.72;;;9.85;81.54
6224;BME280;3145;42.726;23.342;2022-12-29T08:00:21;96349.53;;;9.92;82.03
6224;BME280;3145;42.726;23.342;2022-12-29T08:02:47;96332.75;;;10.11;82.45
6224;BME280;3145;42.726;23.342;2022-12-29T08:05:16;96361.13;;;9.82;81.14
6224;BME280;3145;42.726;23.342;2022-12-29T08:07:43;96359.88;;;10.03;79.93
6224;BME280;3145;42.726;23.342;2022-12-29T08:10:10;96358.59;;;9.90;81.39
6224;BME280;3145;42.726;23.342;2022-12-29T08:12:38;96364.34;;;9.58;82.29
6224;BME280;3145;42.726;23.342;2022-12-29T08:15:06;96359.38;;;9.55;82.55
6224;BME280;3145;42.726;23.342;2022-12-29T08:17:33;96360.72;;;8.95;86.23
6224;BME280;3145;42.726;23.342;2022-12-29T08:20:00;96345.34;;;8.45;89.28
6224;BME280;3145;42.726;23.342;2022-12-29T08:22:33;96356.50;;;8.66;89.19
6224;BME280;3145;42.726;23.342;2022-12-29T08:25:00;96351.94;;;8.77;89.65
6224;BME280;3145;42.726;23.342;2022-12-29T08:27:27;96326.34;;;8.87;89.15
6224;BME280;3145;42.726;23.342;2022-12-29T08:29:53;96347.88;;;9.19;88.87
6224;BME280;3145;42.726;23.342;2022-12-29T08:32:20;96342.94;;;9.07;87.41
6224;BME280;3145;42.726;23.342;2022-12-29T08:34:47;96343.16;;;9.23;88.24
6224;BME280;3145;42.726;23.342;2022-12-29T08:37:13;96350.28;;;9.40;88.04
6224;BME280;3145;42.726;23.342;2022-12-29T08:39:41;96346.97;;;10.00;88.40
6224;BME280;3145;42.726;23.342;2022-12-29T08:42:08;96343.97;;;10.48;84.88
6224;BME280;3145;42.726;23.342;2022-12-29T08:44:35;96352.22;;;10.27;82.18
6224;BME280;3145;42.726;23.342;2022-12-29T08:47:01;96356.09;;;10.58;83.86
6224;BME280;3145;42.726;23.342;2022-12-29T08:49:28;96357.97;;;10.91;81.84
6224;BME280;3145;42.726;23.342;2022-12-29T08:51:55;96341.88;;;11.10;80.64
6224;BME280;3145;42.726;23.342;2022-12-29T08:54:22;96349.88;;;11.18;78.66
6224;BME280;3145;42.726;23.342;2022-12-29T08:56:50;96343.22;;;11.14;78.86
6224;BME280;3145;42.726;23.342;2022-12-29T08:59:17;96346.03;;;11.13;78.77
6224;BME280;3145;42.726;23.342;2022-12-29T09:01:43;96338.69;;;10.73;79.60
6224;BME280;3145;42.726;23.342;2022-12-29T09:04:10;96334.53;;;10.96;79.13
6224;BME280;3145;42.726;23.342;2022-12-29T09:06:37;96338.91;;;11.05;79.02
6224;BME280;3145;42.726;23.342;2022-12-29T09:09:03;96330.47;;;10.84;80.15
6224;BME280;3145;42.726;23.342;2022-12-29T09:11:30;96329.84;;;10.82;79.34
6224;BME280;3145;42.726;23.342;2022-12-29T09:13:58;96280.00;;;10.70;80.14
6224;BME280;3145;42.726;23.342;2022-12-29T09:16:25;96323.09;;;11.21;79.64
6224;BME280;3145;42.726;23.342;2022-12-29T09:18:52;96322.41;;;10.60;78.25
6224;BME280;3145;42.726;23.342;2022-12-29T09:21:19;96324.13;;;10.69;79.00
6224;BME280;3145;42.726;23.342;2022-12-29T09:23:45;96332.25;;;11.01;78.71
6224;BME280;3145;42.726;23.342;2022-12-29T09:26:12;96320.25;;;10.81;78.77
6224;BME280;3145;42.726;23.342;2022-12-29T09:28:39;96325.44;;;10.65;80.77
6224;BME280;3145;42.726;23.342;2022-12-29T09:31:07;96316.03;;;10.71;80.20
6224;BME280;3145;42.726;23.342;2022-12-29T09:33:34;96319.00;;;10.93;79.65
6224;BME280;3145;42.726;23.342;2022-12-29T09:36:01;96301.66;;;10.99;79.72
6224;BME280;3145;42.726;23.342;2022-12-29T09:38:28;96316.16;;;11.28;77.96
6224;BME280;3145;42.726;23.342;2022-12-29T09:40:56;96306.88;;;10.57;79.23
6224;BME280;3145;42.726;23.342;2022-12-29T09:43:39;96304.72;;;10.00;81.96
6224;BME280;3145;42.726;23.342;2022-12-29T09:46:18;96292.06;;;10.04;82.55
6224;BME280;3145;42.726;23.342;2022-12-29T09:48:55;96299.97;;;10.21;83.46
6224;BME280;3145;42.726;23.342;2022-12-29T09:51:24;96309.72;;;10.03;82.85
6224;BME280;3145;42.726;23.342;2022-12-29T09:53:53;96294.16;;;10.35;84.35
6224;BME280;3145;42.726;23.342;2022-12-29T09:56:24;96289.38;;;10.64;83.13
6224;BME280;3145;42.726;23.342;2022-12-29T09:58:54;96286.72;;;10.90;81.21
6224;BME280;3145;42.726;23.342;2022-12-29T10:01:29;96292.16;;;11.22;78.94
6224;BME280;3145;42.726;23.342;2022-12-29T10:03:57;96274.59;;;11.05;78.88
6224;BME280;3145;42.726;23.342;2022-12-29T10:06:26;96287.06;;;11.28;77.53
6224;BME280;3145;42.726;23.342;2022-12-29T10:09:02;96280.97;;;10.94;77.54
6224;BME280;3145;42.726;23.342;2022-12-29T10:11:46;96270.25;;;11.37;76.56
6224;BME280;3145;42.726;23.342;2022-12-29T10:14:27;96265.72;;;11.79;76.41
6224;BME280;3145;42.726;23.342;2022-12-29T10:17:02;96269.28;;;11.46;60.56
6224;BME280;3145;42.726;23.342;2022-12-29T10:19:44;96240.66;;;11.50;59.58
6224;BME280;3145;42.726;23.342;2022-12-29T10:22:21;96263.00;;;11.55;59.47
6224;BME280;3145;42.726;23.342;2022-12-29T10:24:52;96263.13;;;11.46;59.36
6224;BME280;3145;42.726;23.342;2022-12-29T10:27:21;96247.94;;;10.98;60.92
6224;BME280;3145;42.726;23.342;2022-12-29T10:29:50;96227.56;;;10.49;62.09
6224;BME280;3145;42.726;23.342;2022-12-29T10:32:26;96256.28;;;10.52;62.62
6224;BME280;3145;42.726;23.342;2022-12-29T10:34:58;96256.97;;;10.29;63.73
6224;BME280;3145;42.726;23.342;2022-12-29T10:37:32;96240.34;;;10.36;63.67
6224;BME280;3145;42.726;23.342;2022-12-29T10:40:09;96243.47;;;10.57;62.98
6224;BME280;3145;42.726;23.342;2022-12-29T10:42:41;96188.09;;;10.22;64.53
6224;BME280;3145;42.726;23.342;2022-12-29T10:45:12;96237.22;;;10.66;64.24
6224;BME280;3145;42.726;23.342;2022-12-29T10:47:47;96234.31;;;10.77;65.01
6224;BME280;3145;42.726;23.342;2022-12-29T10:50:16;96232.09;;;10.98;64.42
6224;BME280;3145;42.726;23.342;2022-12-29T10:52:43;96230.34;;;11.23;62.58
6224;BME280;3145;42.726;23.342;2022-12-29T10:55:13;96237.78;;;11.27;61.62
6224;BME280;3145;42.726;23.342;2022-12-29T10:57:43;96222.06;;;11.26;62.00
6224;BME280;3145;42.726;23.342;2022-12-29T11:00:12;96215.19;;;11.49;60.15
6224;BME280;3145;42.726;23.342;2022-12-29T11:03:04;96221.22;;;11.75;60.17
6224;BME280;3145;42.726;23.342;2022-12-29T11:05:36;96173.69;;;11.41;59.12
6224;BME280;3145;42.726;23.342;2022-12-29T11:08:10;96214.69;;;11.45;60.05
6224;BME280;3145;42.726;23.342;2022-12-29T11:10:39;96209.75;;;11.58;60.39
6224;BME280;3145;42.726;23.342;2022-12-29T11:13:15;96210.63;;;11.75;59.17
6224;BME280;3145;42.726;23.342;2022-12-29T11:15:43;96198.19;;;11.83;58.98
6224;BME280;3145;42.726;23.342;2022-12-29T11:18:33;96201.81;;;11.58;59.12
6224;BME280;3145;42.726;23.342;2022-12-29T11:21:03;96201.53;;;11.69;59.37
6224;BME280;3145;42.726;23.342;2022-12-29T11:23:33;96201.84;;;11.82;59.13
6224;BME280;3145;42.726;23.342;2022-12-29T11:26:15;96204.81;;;11.87;59.45
6224;BME280;3145;42.726;23.342;2022-12-29T11:28:44;96197.88;;;11.86;59.39
6224;BME280;3145;42.726;23.342;2022-12-29T11:31:15;96169.44;;;11.72;58.41
6224;BME280;3145;42.726;23.342;2022-12-29T11:33:45;96186.13;;;11.65;59.43
6224;BME280;3145;42.726;23.342;2022-12-29T11:36:14;96179.34;;;11.62;59.69
6224;BME280;3145;42.726;23.342;2022-12-29T11:38:46;96191.50;;;11.31;61.40
6224;BME280;3145;42.726;23.342;2022-12-29T11:41:20;96195.69;;;10.92;62.31
6224;BME280;3145;42.726;23.342;2022-12-29T11:43:47;96190.13;;;11.11;62.86
6224;BME280;3145;42.726;23.342;2022-12-29T11:46:17;96180.63;;;11.42;61.98
6224;BME280;3145;42.726;23.342;2022-12-29T11:48:47;96185.63;;;11.69;61.20
6224;BME280;3145;42.726;23.342;2022-12-29T11:51:21;96181.34;;;11.60;60.63
6224;BME280;3145;42.726;23.342;2022-12-29T11:53:51;96185.13;;;11.66;60.32
6224;BME280;3145;42.726;23.342;2022-12-29T11:56:21;96185.63;;;11.69;60.98
6224;BME280;3145;42.726;23.342;2022-12-29T11:58:50;96168.09;;;11.68;60.00
6224;BME280;3145;42.726;23.342;2022-12-29T12:01:21;96172.09;;;11.80;59.40
6224;BME280;3145;42.726;23.342;2022-12-29T12:03:59;96179.03;;;11.81;59.88
6224;BME280;3145;42.726;23.342;2022-12-29T12:06:28;96158.16;;;11.78;59.79
6224;BME280;3145;42.726;23.342;2022-12-29T12:09:00;96161.44;;;11.56;59.64
6224;BME280;3145;42.726;23.342;2022-12-29T12:11:32;96179.03;;;11.65;60.25
6224;BME280;3145;42.726;23.342;2022-12-29T12:14:08;96175.06;;;11.69;60.92
6224;BME280;3145;42.726;23.342;2022-12-29T12:16:40;96109.50;;;11.31;61.18
6224;BME280;3145;42.726;23.342;2022-12-29T12:19:14;96171.03;;;11.57;60.94
6224;BME280;3145;42.726;23.342;2022-12-29T12:21:49;96160.09;;;11.52;60.91
6224;BME280;3145;42.726;23.342;2022-12-29T12:24:34;96157.44;;;11.36;61.72
6224;BME280;3145;42.726;23.342;2022-12-29T12:27:10;96155.13;;;11.33;61.81
6224;BME280;3145;42.726;23.342;2022-12-29T12:29:45;96148.34;;;11.23;62.44
6224;BME280;3145;42.726;23.342;2022-12-29T12:32:16;96157.38;;;11.04;63.21
6224;BME280;3145;42.726;23.342;2022-12-29T12:34:45;96155.25;;;11.08;63.65
6224;BME280;3145;42.726;23.342;2022-12-29T12:37:31;96149.25;;;10.98;63.48
6224;BME280;3145;42.726;23.342;2022-12-29T12:40:20;96151.16;;;10.64;64.36
6224;BME280;3145;42.726;23.342;2022-12-29T12:42:57;96150.25;;;10.47;64.60
6224;BME280;3145;42.726;23.342;2022-12-29T12:45:45;96151.00;;;10.65;64.88
6224;BME280;3145;42.726;23.342;2022-12-29T12:48:28;96145.00;;;10.55;65.06
6224;BME280;3145;42.726;23.342;2022-12-29T12:51:05;96149.28;;;10.56;64.81
6224;BME280;3145;42.726;23.342;2022-12-29T12:53:59;96125.47;;;10.48;65.27
6224;BME280;3145;42.726;23.342;2022-12-29T12:56:47;96147.81;;;10.62;65.54
6224;BME280;3145;42.726;23.342;2022-12-29T12:59:30;96146.56;;;10.40;66.38
6224;BME280;3145;42.726;23.342;2022-12-29T13:02:06;96148.03;;;10.35;67.08
6224;BME280;3145;42.726;23.342;2022-12-29T13:04:53;96154.53;;;10.48;66.55
6224;BME280;3145;42.726;23.342;2022-12-29T13:07:32;96139.88;;;10.54;66.41
6224;BME280;3145;42.726;23.342;2022-12-29T13:10:19;96140.56;;;10.22;66.50
6224;BME280;3145;42.726;23.342;2022-12-29T13:12:53;96151.16;;;10.30;67.03
6224;BME280;3145;42.726;23.342;2022-12-29T13:15:37;96145.66;;;9.98;67.90
6224;BME280;3145;42.726;23.342;2022-12-29T13:18:12;96146.59;;;10.15;67.65
6224;BME280;3145;42.726;23.342;2022-12-29T13:20:47;96136.09;;;10.23;67.58
6224;BME280;3145;42.726;23.342;2022-12-29T13:23:23;96142.81;;;10.17;67.66
6224;BME280;3145;42.726;23.342;2022-12-29T13:26:00;96149.09;;;10.16;67.93
6224;BME280;3145;42.726;23.342;2022-12-29T13:28:36;96150.09;;;10.15;68.03
6224;BME280;3145;42.726;23.342;2022-12-29T13:31:16;96151.06;;;10.14;68.56
6224;BME280;3145;42.726;23.342;2022-12-29T13:33:51;96148.81;;;10.02;69.10
6224;BME280;3145;42.726;23.342;2022-12-29T13:36:25;96149.66;;;10.02;69.05
6224;BME280;3145;42.726;23.342;2022-12-29T13:39:02;96145.50;;;10.00;69.57
6224;BME280;3145;42.726;23.342;2022-12-29T13:41:34;96138.06;;;9.95;69.61
6224;BME280;3145;42.726;23.342;2022-12-29T13:44:03;96145.03;;;10.04;69.56
6224;BME280;3145;42.726;23.342;2022-12-29T13:46:34;96152.03;;;10.13;69.20